BU-353N5

GLOBALSAT WorldCom Corp. 2021.11 Initial Ver.1.0 2022.4 GPSサポート

本体及び付属品

日本語スタートガイド コマンドガイド(DOWNLOAD)

  • GPS

    アンテナ内蔵

  • package
  • ケーブル固定
    Sucker

    ケーブル用

  • manual
    Manual

    日本語クイックガイド保証書

高感度、高速測位(BU-353S4比)を実現
 BU-353S4 USB 後継 New GNSSレシーバー

    MediaTekチップを搭載 パッチアンテナを内蔵した一体型 高速スタート AGPS(EASY)対応

    Windows11対応 PL-2303GC

    GPS/QZSS/Galileo/GLONASS/BeiDou/WAAS(SBAS) マルチチャンネル受信

    高感度-165dBm 低信号レベル(LNA搭載)での高速なTTFF(電源投入後の測位)を実現、低消費電力 5VDC 42mA

    底部にスーパーコーヒーシブマグネットを採用、車への取り付けなどに便利 防水、滑り止め加工済み

    USBに接続し、多くの地図アプリケーション(スーパーマップルデジタル/ゼンリン電子地図帳/NewPec(日本水路協会)/ C-MAP/GoogleEarth/OpenCPN /カシミール3D等で使用できるGPSレシーバです。

BU-353N5 GPS USB

GPS AG3335MN
受信チャンネル 75チャンネル トラッキング
周波数 GPS/Galileo/QZSS/SBAS/L1,1575.42MHz GLONASS/L1,1602MHz BeiDou/B1,1561.098MHz *L1のみ
C/A 1.023MHz
受信感度 -165dBm(トラッキング)
TTFF <1秒/33秒/<15秒(Hot/Cold/AGPS 平均
再補足 0.1秒 平均
位置精度 <3m(2DRMS)<2.5m(SBAS有効時,2DRMS)
速度精度 0.01m/秒
時間精度 1μ秒(0.001m/s)GPS時刻同期後
加速度限界 4G以下
高度限界 18,000m
速度限界 515m/秒 1,000knots
ジャーク 20m/s**3
電源電圧 DC4.5~6.5V input 0~2.85V(42mA@5V)
サイズ 53mm x 19.2mm(直径×高さ)
ケーブル USB Type A 1.5m
インターフェイス USB(PL2303GC USB Serial)
動作温度 -40℃~85℃
湿度 95%(結露しない)
防水 IPX6
Certification EMC:CE/FCC RoHS
USB A Type Pin 1 Vin Pin2,3 USB IF Pin4 GND
LED Color LED ON 探索中 LED点滅 捕捉完了
NMEA 初期出力設定 4800bps GGA, GSA, GSV, RMC, (GLL, VTG, ZDA, GRS, GST)

4800 1Hz

$GNRMC,052750.000,A,3543.8084,N,13943.4706,E,0.01,0.00,290322,,,A,V*0A $GNGGA,052751.000,3543.8084,N,13943.4706,E,1,18,0.88,38.3,M,39.3,M,,*42 $GNGSA,A,3,194,21,08,27,01,16,30,,,,,,1.82,0.88,1.59,1*30 $GNGSA,A,3,88,78,87,,,,,,,,,,1.82,0.88,1.59,2*04 $GNRMC,052751.000,A,3543.8084,N,13943.4706,E,0.03,0.00,290322,,,A,V*09 $GNGGA,052752.000,3543.8084,N,13943.4706,E,1,18,0.88,38.3,M,39.3,M,,*41 $GNGSA,A,3,194,21,08,27,01,16,30,,,,,,1.81,0.88,1.58,1*32 $GNGSA,A,3,88,78,87,,,,,,,,,,1.81,0.88,1.58,2*06 $GNRMC,052752.000,A,3543.8084,N,13943.4706,E,0.10,0.00,290322,,,A,V*08 $GNGGA,052753.000,3543.8084,N,13943.4706,E,1,18,0.88,38.3,M,39.3,M,,*40 $GNGSA,A,3,194,21,08,27,01,16,30,,,,,,1.81,0.88,1.58,1*32 $GNGSA,A,3,88,78,87,,,,,,,,,,1.81,0.88,1.58,2*06 $GPGSV,3,1,11,194,80,168,20,21,73,196,21,08,65,356,35,07,42,283,18,1*59 $GPGSV,3,2,11,27,42,052,40,01,36,208,22,16,34,114,22,30,26,306,26,1*69 $GPGSV,3,3,11,10,19,066,15,26,05,127,,23,05,038,,1*53

2Hz 460800

GPGSV以外の出力を行うには460800bps以上に変更してください(GL/GA/GB)

 $GNRMC,050211.000,A,3543.8118,N,13943.4713,E,0.13,0.00,290322,,,A,V*0B
$GNGGA,050211.500,3543.8118,N,13943.4713,E,1,22,0.74,51.2,M,39.3,M,,*40
$GNGLL,3543.8118,N,13943.4713,E,050211.500,A,A*49
$GNRMC,050211.500,A,3543.8118,N,13943.4713,E,0.14,0.00,290322,,,A,V*09
$GNGGA,050212.000,3543.8118,N,13943.4713,E,1,21,0.75,51.2,M,39.3,M,,*44
$GNGLL,3543.8118,N,13943.4713,E,050212.000,A,A*4F
$GNRMC,050212.000,A,3543.8118,N,13943.4713,E,0.24,0.00,290322,,,A,V*0C
$GNGGA,050212.500,3543.8118,N,13943.4713,E,1,21,0.75,51.2,M,39.3,M,,*41
$GNGLL,3543.8118,N,13943.4713,E,050212.500,A,A*4A
$GNRMC,050212.500,A,3543.8118,N,13943.4713,E,0.10,0.00,290322,,,A,V*0E
$GNGGA,050213.000,3543.8118,N,13943.4713,E,1,21,0.75,51.2,M,39.3,M,,*45
$GNGLL,3543.8118,N,13943.4713,E,050213.000,A,A*4E
$GNRMC,050213.000,A,3543.8118,N,13943.4713,E,0.11,0.00,290322,,,A,V*0B
$GNGGA,050213.500,3543.8118,N,13943.4713,E,1,21,0.75,51.2,M,39.3,M,,*40
$GNGLL,3543.8118,N,13943.4713,E,050213.500,A,A*4B
$GNRMC,050213.500,A,3543.8118,N,13943.4713,E,0.07,0.00,290322,,,A,V*09
$GNGGA,050214.000,3543.8118,N,13943.4713,E,1,20,0.78,51.2,M,39.3,M,,*4E
$GNGLL,3543.8118,N,13943.4713,E,050214.000,A,A*49
$GNRMC,050214.000,A,3543.8118,N,13943.4713,E,0.04,0.00,290322,,,A,V*08
$GNGGA,050214.500,3543.8118,N,13943.4713,E,1,22,0.74,51.2,M,39.3,M,,*45
$GNGLL,3543.8118,N,13943.4713,E,050214.500,A,A*4C
$GNRMC,050214.500,A,3543.8118,N,13943.4713,E,0.03,0.00,290322,,,A,V*0A
$GNGGA,050215.000,3543.8118,N,13943.4713,E,1,22,0.74,51.2,M,39.3,M,,*41
$GNGLL,3543.8118,N,13943.4713,E,050215.000,A,A*48
$GNRMC,050215.000,A,3543.8118,N,13943.4713,E,0.07,0.00,290322,,,A,V*0A
$GNGGA,050215.500,3543.8118,N,13943.4713,E,1,22,0.74,51.2,M,39.3,M,,*44
$GNGLL,3543.8118,N,13943.4713,E,050215.500,A,A*4D
$GNRMC,050215.500,A,3543.8118,N,13943.4713,E,0.04,0.00,290322,,,A,V*0C
$GNGGA,050216.000,3543.8118,N,13943.4713,E,1,22,0.74,51.2,M,39.3,M,,*42
$GNGLL,3543.8118,N,13943.4713,E,050216.000,A,A*4B
$GNGSA,A,3,194,08,21,27,16,07,01,30,,,,,1.06,0.74,0.75,1*37
$GNGSA,A,3,77,87,88,78,,,,,,,,,1.06,0.74,0.75,2*04
$GNGSA,A,3,27,15,21,30,,,,,,,,,1.06,0.74,0.75,3*04
$GNGSA,A,3,11,34,40,07,23,12,,,,,,,1.06,0.74,0.75,4*04
$GNGSA,A,3,,,,,,,,,,,,,1.06,0.74,0.75,6*00
$GPGSV,4,1,14,195,83,156,,199,83,156,,194,83,156,27,10,66,328,18,1*59
$GPGSV,4,2,14,08,66,328,44,21,60,194,25,27,50,041,49,16,42,103,20,1*61
$GPGSV,4,3,14,07,39,297,25,01,25,204,18,30,19,314,21,196,15,177,18,1*55
$GPGSV,4,4,14,26,13,121,16,23,08,047,,1*68
$GLGSV,2,1,06,77,76,138,14,87,63,009,37,88,59,247,15,78,42,328,39,1*77
$GLGSV,2,2,06,76,23,144,,86,05,037,,1*70
$GAGSV,2,1,06,27,76,089,39,13,63,202,19,15,59,050,39,21,44,317,39,7*7D
$GAGSV,2,2,06,30,22,123,14,26,09,214,,7*79
$GBGSV,5,1,18,11,77,299,41,25,74,217,,34,68,024,46,40,58,329,41,1*75
$GBGSV,5,2,18,07,55,308,33,43,53,253,,10,41,301,,23,39,311,23,1*7E
$GBGSV,5,3,18,12,39,042,29,09,31,246,16,24,25,152,,06,24,224,,1*72
$GBGSV,5,4,18,16,22,221,15,38,19,187,,39,15,212,,56,14,211,,1*7A
$GBGSV,5,5,18,08,08,190,,28,02,237,,1*79
$GIGSV,1,1,00,1*7D

Windows11(10)セットアップ (PL-2303GC USB serial driver)

    pl2303    

USBドライバーのセットアップ

PL23XX_Prolific_DriverInstaller_v400.zipインストールします。

Mac→Prolific PL2303 サポートDriverページ guest ログイン

Linux→Kernel 2.4.31以上であればドライバーのインストールは不要です。https://mirrors.edge.kernel.org/pub/linux/kernel/

 
 
      

Windows

MAC

  
  
 

デバイスマネージャー

ポート(COMとLPT)にProlific PL2303GC USB Serial Comm Port(COMxx)が登録されます。アプリケーションからはCOMポート番号を選択し4800bpsで接続します。

MACでは/dev/tty.usbserialシリアルNo として認識されます。

        
  

GPSInfoビュワーのインストール

BaudRate変更 NMEAログ保存 コマンド(GNSS ON/OFF GP/QZ/GL/QZ/IR,NMEA出力設定・解像度,更新周期,DGPSソース等設定変更が行えます。GL/GA/BD GSV出力は460800以上へ変更してください。サポートダウンロードよりGPS Information、コマンドガイドをダウンロード、参照して下さい。  
NewPecでの接続 関連記事
 

水路協会の NewPecとの接続はポートCOM番号と4800bpsボーレートで 設定を行って下さい。

   

 BU-353N5のUSBドライバーをインストール完了後にNewpecの設定を行います。

   

※NewPec用のUSBドングルをセットアップしたUSBポートでは使用できません。

    初期画面(計画モード)
  1. 基本設定 > GPSタブを開きます。
  2. デバイスマネージャー(上図の例)では PL2303GC USB Serial COM Port (COM4)で登録されています。 COM4を選択します。
  3. ポートサーチでも接続可能ですが、GPSのポートがわかっている場合は直接指定する方が早く接続できます。
  4. ボーレート4800bpsを選択(ボーレートを変更した場合は設定値に変更(下図の例では115200で接続しています。)
  5. 設定の適用ボタン を押し GPSデータのメッセージを確認します。($GPや$GNから始まるデータが流れ始めます。)判読不能なデータの場合はボーレートを変更しもう一度適用ボタンを押してください。
  6. OKをクリックして設定画面を閉じます。
    航行支援モードへ
  1. GPSボタンをクリック GPSモードに移行します。よろしいですか? → はい
  2. GPSの位置情報を地図に反映し自船位置が地図上に表示されます。
 

サポートページでBU-353N5シリアルNoを入力しダウンロードページからBU-353N5 WEBターミナルを開きます。(GoogleChrome対応)

COMポートを選択し接続後コマンドを送信して下さい。

設定は保存しません。保存したい場合や他のコマンドはGPSInfoより送信して下さい。

Windows MAC Chrome / Linux Chromiumから接続可能です。

以下のコマンドが操作可能です。

  • リセット
  • GNSSシステム ON
  • GNSSシステム OFF
  • GNSSシステムの選択 GP GL GA BD QZ ILを有効 GNトーカーが出力されます。
  • $GPトーカーが出力されます
  • NMEA3.01 4.10の選択
  • 1Hz/2Hz/5Hz/10Hz設定
  • 4800/9600/115200/460800bps
  • LatLon/ALT 7/3 解像度
  • コマンドガイド(download)
    ・USB Driver-Prolific PL-2303GC Windows Driver Installer(download)
    Utility- GPSInfo(download)